Time;durP1;ratioP1;P1;durP2;ratioP2;P2;SDS_P1;SDS_P2;PMS_P1;PMS_P2;Temp;Humidity;BMP_temperature;BMP_pressure;BME280_temperature;BME280_humidity;BME280_pressure;Samples;Min_cycle;Max_cycle;Signal;HPM_P1;HPM_P2
2022/05/25 00:02:17;;;;;;;2.20;2.10;;;;;;;;;;5037828;28;20186;-77
2022/05/25 00:04:43;;;;;;;2.20;2.10;;;;;;;;;;5037318;28;20186;-76
2022/05/25 00:07:10;;;;;;;2.27;2.07;;;;;;;;;;5022721;28;20708;-77
2022/05/25 00:09:36;;;;;;;2.20;2.00;;;;;;;;;;5038539;28;20229;-75
2022/05/25 00:12:02;;;;;;;2.00;1.73;;;;;;;;;;5019256;28;20187;-78
2022/05/25 00:14:28;;;;;;;2.40;2.20;;;;;;;;;;5036588;28;20301;-77
2022/05/25 00:16:54;;;;;;;2.17;2.03;;;;;;;;;;5037146;28;20217;-76
2022/05/25 00:22:04;;;;;;;2.60;2.00;;;;;;;;;;5037224;28;20217;-76
2022/05/25 00:24:30;;;;;;;2.07;1.97;;;;;;;;;;5038642;28;20186;-76
2022/05/25 00:26:56;;;;;;;1.83;1.70;;;;;;;;;;5033899;28;20187;-77
2022/05/25 00:29:22;;;;;;;2.23;1.93;;;;;;;;;;5037772;28;20210;-76
2022/05/25 00:31:48;;;;;;;2.20;2.00;;;;;;;;;;5034844;28;20196;-79
2022/05/25 00:34:14;;;;;;;1.90;1.80;;;;;;;;;;5036977;28;20191;-73
2022/05/25 00:36:40;;;;;;;1.97;1.77;;;;;;;;;;5033514;28;20213;-79
2022/05/25 00:39:07;;;;;;;2.00;1.90;;;;;;;;;;5034554;28;20218;-77
2022/05/25 00:41:33;;;;;;;2.33;1.90;;;;;;;;;;5035047;28;20215;-77
2022/05/25 00:43:59;;;;;;;1.80;1.60;;;;;;;;;;5034194;28;20249;-77
2022/05/25 00:46:26;;;;;;;2.00;1.90;;;;;;;;;;5034168;28;20272;-79
2022/05/25 00:48:56;;;;;;;1.90;1.80;;;;;;;;;;5037711;28;20560;-75
2022/05/25 00:51:26;;;;;;;1.93;1.30;;;;;;;;;;5035316;28;20192;-78
2022/05/25 00:53:54;;;;;;;2.77;1.77;;;;;;;;;;5035016;28;20199;-77
2022/05/25 00:56:22;;;;;;;1.60;1.50;;;;;;;;;;5035004;28;20191;-78
2022/05/25 00:58:58;;;;;;;4.57;1.73;;;;;;;;;;5037056;28;20222;-77
2022/05/25 01:04:27;;;;;;;3.10;1.60;;;;;;;;;;5032397;28;20216;-76
2022/05/25 01:07:02;;;;;;;2.03;1.57;;;;;;;;;;5037363;28;20512;-79
2022/05/25 01:09:34;;;;;;;1.60;1.50;;;;;;;;;;5019307;28;20214;-75
2022/05/25 01:12:19;;;;;;;2.10;1.50;;;;;;;;;;5034283;28;20697;-76
2022/05/25 01:14:55;;;;;;;1.63;1.53;;;;;;;;;;5035843;28;20289;-77
2022/05/25 01:17:21;;;;;;;3.47;2.03;;;;;;;;;;5031078;28;20201;-76
2022/05/25 01:19:53;;;;;;;1.87;1.67;;;;;;;;;;5035488;28;20191;-75
2022/05/25 01:22:25;;;;;;;1.87;1.77;;;;;;;;;;5033285;28;20244;-77
2022/05/25 01:25:10;;;;;;;2.03;1.93;;;;;;;;;;5007730;28;20241;-79
2022/05/25 01:27:41;;;;;;;2.10;1.87;;;;;;;;;;5034689;28;20793;-73
2022/05/25 01:30:13;;;;;;;1.70;1.60;;;;;;;;;;5036350;28;20617;-78
2022/05/25 01:32:42;;;;;;;1.70;1.60;;;;;;;;;;5036840;28;20581;-78
2022/05/25 01:35:12;;;;;;;1.70;1.60;;;;;;;;;;5034170;28;20195;-78
2022/05/25 01:37:50;;;;;;;1.50;1.40;;;;;;;;;;5033510;28;20206;-77
2022/05/25 01:40:21;;;;;;;2.07;1.60;;;;;;;;;;5036539;28;20186;-76
2022/05/25 01:42:51;;;;;;;2.00;1.80;;;;;;;;;;5033793;28;20249;-77
2022/05/25 01:45:18;;;;;;;2.00;1.73;;;;;;;;;;5034937;28;20597;-77
2022/05/25 01:47:46;;;;;;;3.23;2.50;;;;;;;;;;5017973;28;20804;-75
2022/05/25 01:50:14;;;;;;;2.20;2.00;;;;;;;;;;5034375;28;20190;-76
2022/05/25 01:52:43;;;;;;;1.60;1.50;;;;;;;;;;5039432;28;20183;-76
2022/05/25 01:55:12;;;;;;;2.47;1.67;;;;;;;;;;5031901;28;20194;-77
2022/05/25 01:57:42;;;;;;;2.20;1.87;;;;;;;;;;5032652;28;20574;-78
2022/05/25 02:00:09;;;;;;;1.83;1.73;;;;;;;;;;5038426;28;20208;-77
2022/05/25 02:05:21;;;;;;;2.07;1.90;;;;;;;;;;5036227;28;20190;-76
2022/05/25 02:08:02;;;;;;;2.87;1.83;;;;;;;;;;5035951;28;20206;-77
2022/05/25 02:10:51;;;;;;;3.57;2.07;;;;;;;;;;5034044;28;21304;-77
2022/05/25 02:13:30;;;;;;;1.97;1.87;;;;;;;;;;5017612;28;20534;-77
2022/05/25 02:16:03;;;;;;;1.77;1.67;;;;;;;;;;5032099;28;20190;-76
2022/05/25 02:18:48;;;;;;;2.00;1.80;;;;;;;;;;5030165;28;20215;-76
2022/05/25 02:21:18;;;;;;;1.97;1.80;;;;;;;;;;5032037;28;20240;-77
2022/05/25 02:23:44;;;;;;;2.33;1.70;;;;;;;;;;5014553;28;20186;-77
2022/05/25 02:26:15;;;;;;;1.87;1.70;;;;;;;;;;5034084;28;20732;-77
2022/05/25 02:28:43;;;;;;;3.43;1.80;;;;;;;;;;5033588;28;20221;-77
2022/05/25 02:31:12;;;;;;;1.73;1.63;;;;;;;;;;5035536;28;20200;-75
2022/05/25 02:33:40;;;;;;;2.80;1.60;;;;;;;;;;5036907;28;20191;-77
2022/05/25 02:36:08;;;;;;;2.27;1.80;;;;;;;;;;5038457;28;20682;-78
2022/05/25 02:38:37;;;;;;;2.17;1.70;;;;;;;;;;5039203;28;20214;-75
2022/05/25 02:41:07;;;;;;;1.70;1.60;;;;;;;;;;5037893;28;20278;-75
2022/05/25 02:43:37;;;;;;;3.13;1.87;;;;;;;;;;5036356;28;20187;-77
2022/05/25 02:46:04;;;;;;;1.97;1.80;;;;;;;;;;5036528;28;20187;-77
2022/05/25 02:48:30;;;;;;;1.60;1.50;;;;;;;;;;5037286;28;20241;-76
2022/05/25 02:50:56;;;;;;;1.70;1.57;;;;;;;;;;5038139;28;20186;-75
2022/05/25 02:53:22;;;;;;;1.87;1.73;;;;;;;;;;5038712;28;20194;-75
2022/05/25 02:55:49;;;;;;;1.83;1.73;;;;;;;;;;5015620;28;20194;-76
2022/05/25 02:58:16;;;;;;;2.60;1.50;;;;;;;;;;5038021;28;20341;-75
2022/05/25 03:00:42;;;;;;;1.93;1.40;;;;;;;;;;5017902;28;20183;-77
2022/05/25 03:03:08;;;;;;;1.43;1.20;;;;;;;;;;5040896;28;20236;-76
2022/05/25 03:05:34;;;;;;;3.47;1.60;;;;;;;;;;5036409;28;20187;-74
2022/05/25 03:08:00;;;;;;;1.53;1.43;;;;;;;;;;5039541;28;20202;-78
2022/05/25 03:10:26;;;;;;;1.57;1.47;;;;;;;;;;5023919;28;20194;-77
2022/05/25 03:12:52;;;;;;;3.20;1.93;;;;;;;;;;5020637;28;20278;-74
2022/05/25 03:15:20;;;;;;;1.60;1.50;;;;;;;;;;5036365;28;20194;-78
2022/05/25 03:17:47;;;;;;;2.57;1.60;;;;;;;;;;5040158;28;20217;-76
2022/05/25 03:20:16;;;;;;;2.13;1.70;;;;;;;;;;5037536;28;20638;-76
2022/05/25 03:22:44;;;;;;;2.00;1.40;;;;;;;;;;5036392;28;20213;-75
2022/05/25 03:25:11;;;;;;;2.00;1.50;;;;;;;;;;5035363;28;20178;-77
2022/05/25 03:27:37;;;;;;;1.80;1.70;;;;;;;;;;5043026;28;20248;-75
2022/05/25 03:30:07;;;;;;;1.37;1.27;;;;;;;;;;5037578;28;20186;-78
2022/05/25 03:32:33;;;;;;;1.47;1.37;;;;;;;;;;5037514;28;20193;-76
2022/05/25 03:34:59;;;;;;;1.70;1.60;;;;;;;;;;5031432;28;20186;-77
2022/05/25 03:37:26;;;;;;;1.80;1.33;;;;;;;;;;5037082;28;20183;-77
2022/05/25 03:39:52;;;;;;;2.23;1.50;;;;;;;;;;5037179;28;20301;-78
2022/05/25 03:42:18;;;;;;;1.50;1.40;;;;;;;;;;5033479;28;20702;-76
2022/05/25 03:44:44;;;;;;;2.00;1.57;;;;;;;;;;5016293;28;20193;-76
2022/05/25 03:47:11;;;;;;;1.57;1.40;;;;;;;;;;5016988;28;20187;-76
2022/05/25 03:49:37;;;;;;;1.40;1.30;;;;;;;;;;5020291;28;20202;-75
2022/05/25 03:52:04;;;;;;;1.70;1.60;;;;;;;;;;5036879;28;20193;-74
2022/05/25 03:54:30;;;;;;;2.40;1.60;;;;;;;;;;5034581;28;20187;-75
2022/05/25 03:56:56;;;;;;;2.57;1.60;;;;;;;;;;5016619;28;20195;-76
2022/05/25 03:59:24;;;;;;;1.80;1.40;;;;;;;;;;5036459;28;20230;-79
2022/05/25 04:01:50;;;;;;;2.23;1.80;;;;;;;;;;5035316;28;20286;-75
2022/05/25 04:04:16;;;;;;;1.70;1.60;;;;;;;;;;5037381;28;20182;-76
2022/05/25 04:06:42;;;;;;;1.70;1.60;;;;;;;;;;5036279;28;20710;-76
2022/05/25 04:09:09;;;;;;;1.57;1.47;;;;;;;;;;5038303;28;20209;-78
2022/05/25 04:11:35;;;;;;;1.20;1.10;;;;;;;;;;5035488;28;20187;-78
2022/05/25 04:14:01;;;;;;;2.40;1.40;;;;;;;;;;5034519;28;20531;-76
2022/05/25 04:16:27;;;;;;;2.10;1.50;;;;;;;;;;5035043;28;20194;-75
2022/05/25 04:18:53;;;;;;;1.90;1.70;;;;;;;;;;5038678;28;20221;-76
2022/05/25 04:21:19;;;;;;;1.70;1.60;;;;;;;;;;5031804;28;20204;-77
2022/05/25 04:23:45;;;;;;;1.60;1.50;;;;;;;;;;5034872;28;20189;-76
2022/05/25 04:26:11;;;;;;;1.60;1.20;;;;;;;;;;5036885;28;20721;-76
2022/05/25 04:28:37;;;;;;;1.50;1.40;;;;;;;;;;5034843;28;20280;-78
2022/05/25 04:31:04;;;;;;;2.00;1.60;;;;;;;;;;5036659;28;20330;-77
2022/05/25 04:33:30;;;;;;;1.60;1.40;;;;;;;;;;5015540;28;20273;-76
2022/05/25 04:35:57;;;;;;;1.47;1.37;;;;;;;;;;5031013;28;20182;-77
2022/05/25 04:38:24;;;;;;;1.73;1.50;;;;;;;;;;5035997;28;20215;-73
2022/05/25 04:40:50;;;;;;;1.63;1.40;;;;;;;;;;5038286;28;20275;-76
2022/05/25 04:43:21;;;;;;;2.40;1.47;;;;;;;;;;5037229;28;20225;-75
2022/05/25 04:45:47;;;;;;;1.38;1.20;;;;;;;;;;5019967;28;20194;-74
2022/05/25 04:48:14;;;;;;;2.28;1.23;;;;;;;;;;5032796;28;20229;-78
2022/05/25 04:50:41;;;;;;;1.58;1.17;;;;;;;;;;5036168;28;20251;-75
2022/05/25 04:53:08;;;;;;;2.20;1.25;;;;;;;;;;5034275;28;20198;-78
2022/05/25 04:58:21;;;;;;;1.15;1.00;;;;;;;;;;5035154;28;20275;-76
2022/05/25 05:00:47;;;;;;;1.13;1.02;;;;;;;;;;5033065;28;20178;-77
2022/05/25 05:03:13;;;;;;;1.08;0.98;;;;;;;;;;5036191;28;20197;-77
2022/05/25 05:05:40;;;;;;;0.95;0.80;;;;;;;;;;5036232;28;20642;-78
2022/05/25 05:08:07;;;;;;;1.13;1.00;;;;;;;;;;5036889;28;20209;-77
2022/05/25 05:10:33;;;;;;;1.58;1.02;;;;;;;;;;5036708;28;20403;-76
2022/05/25 05:13:04;;;;;;;0.85;0.80;;;;;;;;;;5029599;28;20175;-76
2022/05/25 05:15:30;;;;;;;1.80;1.05;;;;;;;;;;5032522;28;20186;-76
2022/05/25 05:17:56;;;;;;;1.55;0.85;;;;;;;;;;5033186;28;20214;-76
2022/05/25 05:20:22;;;;;;;3.10;1.00;;;;;;;;;;5033905;28;20194;-77
2022/05/25 05:22:48;;;;;;;1.10;1.00;;;;;;;;;;5033742;28;20618;-75
2022/05/25 05:25:14;;;;;;;2.85;1.23;;;;;;;;;;5035397;28;20189;-77
2022/05/25 05:27:40;;;;;;;2.08;1.13;;;;;;;;;;5036158;28;20202;-73
2022/05/25 05:30:07;;;;;;;1.00;1.00;;;;;;;;;;5034983;28;20681;-76
2022/05/25 05:32:35;;;;;;;1.15;1.05;;;;;;;;;;5034354;28;20182;-76
2022/05/25 05:35:02;;;;;;;1.42;1.30;;;;;;;;;;5033984;28;20661;-77
2022/05/25 05:37:35;;;;;;;1.20;1.10;;;;;;;;;;5017180;28;20225;-76
2022/05/25 05:40:01;;;;;;;1.77;1.00;;;;;;;;;;5016835;28;20189;-74
2022/05/25 05:42:28;;;;;;;1.25;1.13;;;;;;;;;;5032552;28;20657;-74
2022/05/25 05:44:58;;;;;;;2.20;1.77;;;;;;;;;;5034017;28;20183;-75
2022/05/25 05:47:26;;;;;;;2.35;1.30;;;;;;;;;;5033178;28;20186;-75
2022/05/25 05:49:53;;;;;;;2.13;1.55;;;;;;;;;;5030339;28;20611;-75
2022/05/25 05:52:19;;;;;;;1.58;1.48;;;;;;;;;;5034946;28;20193;-76
2022/05/25 05:54:45;;;;;;;2.17;1.90;;;;;;;;;;5034850;28;20191;-78
2022/05/25 05:57:12;;;;;;;3.60;1.90;;;;;;;;;;5035168;28;20186;-78
2022/05/25 05:59:38;;;;;;;2.90;2.10;;;;;;;;;;5032989;28;20291;-76
2022/05/25 06:02:05;;;;;;;2.08;1.88;;;;;;;;;;5032450;28;20194;-78
2022/05/25 06:04:31;;;;;;;2.45;2.22;;;;;;;;;;5033533;28;20178;-76
2022/05/25 06:06:57;;;;;;;2.38;2.00;;;;;;;;;;5033818;28;20605;-77
2022/05/25 06:09:22;;;;;;;1.77;1.65;;;;;;;;;;5021889;28;20313;-76
2022/05/25 06:11:48;;;;;;;2.50;2.20;;;;;;;;;;5037179;28;20276;-77
2022/05/25 06:14:14;;;;;;;3.17;1.90;;;;;;;;;;5026441;28;20186;-76
2022/05/25 06:19:37;;;;;;;2.40;2.17;;;;;;;;;;5000046;28;20223;-77
2022/05/25 06:22:10;;;;;;;2.88;2.20;;;;;;;;;;5044331;28;20206;-76
2022/05/25 06:24:46;;;;;;;2.78;2.28;;;;;;;;;;5030922;28;20229;-77
2022/05/25 06:27:12;;;;;;;2.40;2.20;;;;;;;;;;5037762;28;20216;-77
2022/05/25 06:29:40;;;;;;;2.97;2.28;;;;;;;;;;5043756;28;20270;-74
2022/05/25 06:32:07;;;;;;;2.47;2.10;;;;;;;;;;5037612;28;20469;-75
2022/05/25 06:34:33;;;;;;;2.50;2.20;;;;;;;;;;5037576;28;20193;-75
2022/05/25 06:36:59;;;;;;;3.03;2.55;;;;;;;;;;5037739;28;20705;-74
2022/05/25 06:39:26;;;;;;;3.25;2.50;;;;;;;;;;5036693;28;20321;-74
2022/05/25 06:41:52;;;;;;;3.58;2.30;;;;;;;;;;5028176;28;20195;-74
2022/05/25 06:44:18;;;;;;;2.53;2.33;;;;;;;;;;5036626;28;20175;-73
2022/05/25 06:46:44;;;;;;;2.95;2.28;;;;;;;;;;5039318;28;20228;-75
2022/05/25 06:49:10;;;;;;;2.80;2.20;;;;;;;;;;5040276;28;20268;-74
2022/05/25 06:51:37;;;;;;;3.00;2.30;;;;;;;;;;5033490;28;20194;-76
2022/05/25 06:54:03;;;;;;;3.10;2.30;;;;;;;;;;5036618;28;20222;-75
2022/05/25 06:56:29;;;;;;;2.85;2.40;;;;;;;;;;5039262;28;20243;-76
2022/05/25 06:58:57;;;;;;;3.72;2.80;;;;;;;;;;5036710;28;20228;-75
2022/05/25 07:01:24;;;;;;;3.40;3.10;;;;;;;;;;5035120;28;20182;-76
2022/05/25 07:03:52;;;;;;;8.50;7.57;;;;;;;;;;5025332;28;20197;-76
2022/05/25 07:06:20;;;;;;;10.45;7.10;;;;;;;;;;5022659;28;20897;-80
2022/05/25 07:08:47;;;;;;;25.70;22.38;;;;;;;;;;5027851;28;20293;-77
2022/05/25 07:11:13;;;;;;;18.00;15.52;;;;;;;;;;5010469;28;20248;-80
2022/05/25 07:13:39;;;;;;;5.80;5.20;;;;;;;;;;5017070;28;20610;-76
2022/05/25 07:16:06;;;;;;;6.80;4.30;;;;;;;;;;5037080;28;20198;-77
2022/05/25 07:21:08;;;;;;;4.07;3.67;;;;;;;;;;5014485;28;20231;-75
2022/05/25 07:23:35;;;;;;;5.50;3.83;;;;;;;;;;5018236;28;20566;-78
2022/05/25 07:26:02;;;;;;;4.32;3.83;;;;;;;;;;5017651;28;20676;-75
2022/05/25 07:28:29;;;;;;;4.18;3.53;;;;;;;;;;5029010;28;20207;-75
2022/05/25 07:31:01;;;;;;;5.45;3.45;;;;;;;;;;5039832;28;20187;-77
2022/05/25 07:33:27;;;;;;;3.67;3.22;;;;;;;;;;5027994;28;20178;-75
2022/05/25 07:35:54;;;;;;;5.78;3.70;;;;;;;;;;5038652;28;20320;-76
2022/05/25 07:38:20;;;;;;;3.45;2.97;;;;;;;;;;5033470;28;20218;-77
2022/05/25 07:40:47;;;;;;;3.22;2.92;;;;;;;;;;5032278;28;20187;-75
2022/05/25 07:43:17;;;;;;;4.28;3.17;;;;;;;;;;5033852;28;20458;-80
2022/05/25 07:45:45;;;;;;;5.72;3.75;;;;;;;;;;5033796;28;20430;-76
2022/05/25 07:48:11;;;;;;;6.00;3.25;;;;;;;;;;5023908;28;20309;-76
2022/05/25 07:50:38;;;;;;;2.90;2.53;;;;;;;;;;5032270;28;20265;-79
2022/05/25 07:53:55;;;;;;;3.83;3.30;;;;;;;;;;5024223;28;20186;-76
2022/05/25 07:55:51;;;;;;;3.85;3.05;;;;;;;;;;5037011;28;20194;-78
2022/05/25 07:58:17;;;;;;;4.20;2.80;;;;;;;;;;5030151;28;20221;-75
2022/05/25 08:00:43;;;;;;;3.72;2.88;;;;;;;;;;5035950;28;20294;-76
2022/05/25 08:05:58;;;;;;;3.35;2.60;;;;;;;;;;5033471;28;20190;-69
2022/05/25 08:08:25;;;;;;;4.63;3.17;;;;;;;;;;5035174;28;20202;-71
2022/05/25 08:10:52;;;;;;;4.07;2.63;;;;;;;;;;5033329;28;20203;-70
2022/05/25 08:13:18;;;;;;;2.97;2.30;;;;;;;;;;5025172;28;20182;-70
2022/05/25 08:15:46;;;;;;;5.90;2.28;;;;;;;;;;5032895;28;20197;-69
2022/05/25 08:18:13;;;;;;;2.45;1.95;;;;;;;;;;5038403;28;20214;-69
2022/05/25 08:20:39;;;;;;;3.47;2.50;;;;;;;;;;5035146;28;20221;-69
2022/05/25 08:23:06;;;;;;;3.15;2.25;;;;;;;;;;5038263;28;20544;-69
2022/05/25 08:25:32;;;;;;;2.97;2.50;;;;;;;;;;5035643;28;20484;-70
2022/05/25 08:27:58;;;;;;;2.88;2.30;;;;;;;;;;5033762;28;20213;-69
2022/05/25 08:30:24;;;;;;;5.25;1.85;;;;;;;;;;5038398;28;20183;-69
2022/05/25 08:32:50;;;;;;;3.30;2.00;;;;;;;;;;5032714;28;20187;-69
2022/05/25 08:35:16;;;;;;;2.75;1.95;;;;;;;;;;5029505;28;20634;-70
2022/05/25 08:37:42;;;;;;;3.55;2.45;;;;;;;;;;5032564;28;20211;-70
2022/05/25 08:40:10;;;;;;;3.22;2.00;;;;;;;;;;5035354;28;20245;-69
2022/05/25 08:42:56;;;;;;;2.80;1.75;;;;;;;;;;5030576;28;20189;-71
2022/05/25 08:45:24;;;;;;;2.88;1.92;;;;;;;;;;5033212;28;20217;-69
2022/05/25 08:47:52;;;;;;;2.13;1.70;;;;;;;;;;5028671;28;20530;-69
2022/05/25 08:50:18;;;;;;;2.08;1.88;;;;;;;;;;5035492;28;20189;-69
2022/05/25 08:52:45;;;;;;;3.45;1.90;;;;;;;;;;5035534;28;20638;-70
2022/05/25 08:55:12;;;;;;;2.28;2.00;;;;;;;;;;5036170;28;20268;-70
2022/05/25 08:57:57;;;;;;;2.22;1.50;;;;;;;;;;5027692;28;20209;-69
2022/05/25 09:00:23;;;;;;;2.35;1.42;;;;;;;;;;5030580;28;20193;-71
2022/05/25 09:02:57;;;;;;;1.48;1.10;;;;;;;;;;5025204;28;20189;-70
2022/05/25 09:05:34;;;;;;;2.67;1.85;;;;;;;;;;5025909;28;20186;-70
2022/05/25 09:08:04;;;;;;;2.45;1.23;;;;;;;;;;5027281;28;20202;-69
2022/05/25 09:10:33;;;;;;;2.85;1.23;;;;;;;;;;5032910;28;20195;-69
2022/05/25 09:13:07;;;;;;;1.83;1.17;;;;;;;;;;5030439;28;20187;-71
2022/05/25 09:15:35;;;;;;;2.03;1.10;;;;;;;;;;5032945;28;20178;-69
2022/05/25 09:18:09;;;;;;;2.15;1.20;;;;;;;;;;5035511;28;20202;-70
2022/05/25 09:20:44;;;;;;;1.77;1.08;;;;;;;;;;5034145;28;20666;-69
2022/05/25 09:23:11;;;;;;;1.90;1.25;;;;;;;;;;5034197;28;20193;-69
2022/05/25 09:25:37;;;;;;;1.23;1.13;;;;;;;;;;5035749;28;20693;-69
2022/05/25 09:28:07;;;;;;;0.90;0.90;;;;;;;;;;5034450;28;20210;-70
2022/05/25 09:30:36;;;;;;;1.75;1.02;;;;;;;;;;5032050;28;20952;-69
2022/05/25 09:33:05;;;;;;;1.55;1.10;;;;;;;;;;5034447;28;20604;-69
2022/05/25 09:35:48;;;;;;;1.77;1.20;;;;;;;;;;5024516;28;20185;-72
2022/05/25 09:38:15;;;;;;;2.65;1.38;;;;;;;;;;5035223;28;20214;-69
2022/05/25 09:40:45;;;;;;;1.90;1.38;;;;;;;;;;5032018;28;20183;-70
2022/05/25 09:43:12;;;;;;;2.45;1.63;;;;;;;;;;5024638;28;20183;-70
2022/05/25 09:45:44;;;;;;;2.17;1.40;;;;;;;;;;5028740;28;20699;-69
2022/05/25 09:48:14;;;;;;;1.30;1.10;;;;;;;;;;5037000;28;20305;-70
2022/05/25 09:50:45;;;;;;;2.28;1.50;;;;;;;;;;5031712;28;20195;-69
2022/05/25 09:53:14;;;;;;;1.40;1.13;;;;;;;;;;5028770;28;20241;-69
2022/05/25 09:55:45;;;;;;;0.88;0.88;;;;;;;;;;5029911;28;20277;-70
2022/05/25 09:58:14;;;;;;;1.67;0.95;;;;;;;;;;5032927;28;20857;-68
2022/05/25 10:00:48;;;;;;;1.27;0.93;;;;;;;;;;5026787;28;20183;-69
2022/05/25 10:03:31;;;;;;;0.95;0.77;;;;;;;;;;5036061;28;20186;-69
2022/05/25 10:05:59;;;;;;;1.45;0.90;;;;;;;;;;5037582;28;20178;-69
2022/05/25 10:08:40;;;;;;;2.90;0.77;;;;;;;;;;5031263;28;20229;-70
2022/05/25 10:11:11;;;;;;;2.17;1.08;;;;;;;;;;5032367;28;20278;-68
2022/05/25 10:13:38;;;;;;;2.08;1.10;;;;;;;;;;5028230;28;20183;-68
2022/05/25 10:16:40;;;;;;;2.65;1.17;;;;;;;;;;5029516;28;20209;-68
2022/05/25 10:19:11;;;;;;;1.25;1.00;;;;;;;;;;4932573;29;20309;-70
2022/05/25 10:21:37;;;;;;;1.75;1.10;;;;;;;;;;5009018;28;20206;-69
2022/05/25 10:24:04;;;;;;;1.35;0.80;;;;;;;;;;5025772;28;20228;-70
2022/05/25 10:26:31;;;;;;;0.82;0.80;;;;;;;;;;5028068;28;20727;-69
2022/05/25 10:28:59;;;;;;;0.80;0.68;;;;;;;;;;5030249;28;20222;-69
2022/05/25 10:36:56;;;;;;;0.88;0.60;;;;;;;;;;5028303;28;20195;-70
2022/05/25 10:39:28;;;;;;;0.60;0.60;;;;;;;;;;5030517;28;20208;-68
2022/05/25 10:42:29;;;;;;;1.00;0.63;;;;;;;;;;5039372;28;20190;-68
2022/05/25 10:45:02;;;;;;;0.60;0.60;;;;;;;;;;5002754;28;20281;-69
2022/05/25 10:47:34;;;;;;;1.73;0.70;;;;;;;;;;5036415;28;20175;-69
2022/05/25 10:50:01;;;;;;;0.65;0.65;;;;;;;;;;5035918;28;20536;-68
2022/05/25 10:52:33;;;;;;;2.03;0.80;;;;;;;;;;5033902;28;20210;-70
2022/05/25 10:54:59;;;;;;;1.27;0.80;;;;;;;;;;5035704;28;20262;-69
2022/05/25 10:57:39;;;;;;;1.58;0.88;;;;;;;;;;5034710;28;20277;-70
2022/05/25 11:00:24;;;;;;;1.50;0.85;;;;;;;;;;5038107;28;20230;-69
2022/05/25 11:02:49;;;;;;;1.17;0.60;;;;;;;;;;5032596;28;20460;-69
2022/05/25 11:05:23;;;;;;;1.20;0.60;;;;;;;;;;5035423;28;20213;-69
2022/05/25 11:07:50;;;;;;;1.38;1.10;;;;;;;;;;5029846;28;20197;-69
2022/05/25 11:10:37;;;;;;;1.67;1.00;;;;;;;;;;5033742;28;20287;-69
2022/05/25 11:13:03;;;;;;;1.58;1.00;;;;;;;;;;5035973;28;20194;-69
2022/05/25 11:15:37;;;;;;;2.05;0.90;;;;;;;;;;5027384;28;20183;-69
2022/05/25 11:18:17;;;;;;;1.23;0.65;;;;;;;;;;5032777;28;20543;-70
2022/05/25 11:20:43;;;;;;;1.65;0.60;;;;;;;;;;5036227;28;20251;-68
2022/05/25 11:23:28;;;;;;;1.75;0.77;;;;;;;;;;5027199;28;20595;-70
2022/05/25 11:25:57;;;;;;;1.80;0.80;;;;;;;;;;5036195;28;20179;-69
2022/05/25 11:28:38;;;;;;;1.05;0.70;;;;;;;;;;5028270;28;20234;-69
2022/05/25 11:31:10;;;;;;;1.30;0.73;;;;;;;;;;5037396;28;20708;-69
2022/05/25 11:33:42;;;;;;;0.70;0.70;;;;;;;;;;5031705;28;20175;-70
2022/05/25 11:36:26;;;;;;;1.02;0.80;;;;;;;;;;5042107;28;20187;-69
2022/05/25 11:39:02;;;;;;;1.20;0.80;;;;;;;;;;5029292;28;20215;-69
2022/05/25 11:41:43;;;;;;;1.10;0.90;;;;;;;;;;5029192;28;20182;-69
2022/05/25 11:44:22;;;;;;;2.42;0.90;;;;;;;;;;5034842;28;20193;-68
2022/05/25 11:46:49;;;;;;;1.38;1.02;;;;;;;;;;5038053;28;20197;-70
2022/05/25 11:49:39;;;;;;;2.60;0.90;;;;;;;;;;5039141;28;20682;-68
2022/05/25 11:52:21;;;;;;;1.33;0.90;;;;;;;;;;5030473;28;20179;-68
2022/05/25 11:55:10;;;;;;;2.08;1.10;;;;;;;;;;5023057;28;20275;-70
2022/05/25 11:57:40;;;;;;;1.88;0.80;;;;;;;;;;4999595;28;20596;-69
2022/05/25 12:00:06;;;;;;;1.65;0.77;;;;;;;;;;5031418;28;20218;-68
2022/05/25 12:02:43;;;;;;;0.70;0.70;;;;;;;;;;5033706;28;20215;-69
2022/05/25 12:05:09;;;;;;;1.02;0.70;;;;;;;;;;5028194;28;20189;-68
2022/05/25 12:07:43;;;;;;;0.98;0.57;;;;;;;;;;5033208;28;20174;-69
2022/05/25 12:10:24;;;;;;;1.30;0.47;;;;;;;;;;5032340;28;20186;-68
2022/05/25 12:12:50;;;;;;;1.75;0.80;;;;;;;;;;5025103;28;20310;-69
2022/05/25 12:15:20;;;;;;;1.45;0.60;;;;;;;;;;5025596;28;20191;-69
2022/05/25 12:17:51;;;;;;;1.17;0.57;;;;;;;;;;5029088;28;20305;-69
2022/05/25 12:20:23;;;;;;;1.02;0.77;;;;;;;;;;5029459;28;20202;-69
2022/05/25 12:22:52;;;;;;;0.90;0.50;;;;;;;;;;5039772;28;20261;-68
2022/05/25 12:25:20;;;;;;;0.60;0.60;;;;;;;;;;5024644;28;20215;-69
2022/05/25 12:27:48;;;;;;;1.35;0.73;;;;;;;;;;5034518;28;20240;-68
2022/05/25 12:30:16;;;;;;;0.82;0.70;;;;;;;;;;5032597;28;20236;-69
2022/05/25 12:32:42;;;;;;;0.85;0.63;;;;;;;;;;5016169;28;20186;-69
2022/05/25 12:35:10;;;;;;;1.05;0.70;;;;;;;;;;5029310;28;21029;-69
2022/05/25 12:37:41;;;;;;;0.88;0.63;;;;;;;;;;5033843;28;20214;-68
2022/05/25 12:40:07;;;;;;;0.70;0.70;;;;;;;;;;5034656;28;20407;-70
2022/05/25 12:42:35;;;;;;;2.53;0.70;;;;;;;;;;5035617;28;20244;-68
2022/05/25 12:50:54;;;;;;;0.68;0.50;;;;;;;;;;5030870;28;20202;-69
2022/05/25 12:53:19;;;;;;;0.63;0.40;;;;;;;;;;5026063;28;20182;-68
2022/05/25 12:55:53;;;;;;;0.82;0.40;;;;;;;;;;5026663;28;20532;-70
2022/05/25 12:58:32;;;;;;;1.27;0.50;;;;;;;;;;5036403;28;20201;-69
2022/05/25 13:01:06;;;;;;;0.60;0.50;;;;;;;;;;5028378;28;20535;-69
2022/05/25 13:03:41;;;;;;;0.57;0.57;;;;;;;;;;5025626;28;20182;-69
2022/05/25 13:06:08;;;;;;;1.20;0.60;;;;;;;;;;5038297;28;20260;-69
2022/05/25 13:08:46;;;;;;;0.40;0.40;;;;;;;;;;5035686;28;20237;-70
2022/05/25 13:11:31;;;;;;;1.45;0.70;;;;;;;;;;5033545;28;20557;-69
2022/05/25 13:13:58;;;;;;;2.55;0.57;;;;;;;;;;5030995;28;20190;-68
2022/05/25 13:16:46;;;;;;;1.25;0.35;;;;;;;;;;5028320;28;20187;-70
2022/05/25 13:19:16;;;;;;;0.95;0.50;;;;;;;;;;5036268;28;20420;-69
2022/05/25 13:21:44;;;;;;;0.35;0.30;;;;;;;;;;5032003;28;20347;-69
2022/05/25 13:24:12;;;;;;;0.38;0.38;;;;;;;;;;5030380;28;20187;-69
2022/05/25 13:26:44;;;;;;;1.15;0.50;;;;;;;;;;5033762;28;20178;-70
2022/05/25 13:29:18;;;;;;;0.82;0.50;;;;;;;;;;5029248;28;20238;-69
2022/05/25 13:32:17;;;;;;;0.55;0.50;;;;;;;;;;5036972;28;20178;-69
2022/05/25 13:34:43;;;;;;;0.60;0.45;;;;;;;;;;4985882;28;20606;-69
2022/05/25 13:37:13;;;;;;;0.50;0.47;;;;;;;;;;5028386;28;20273;-71
2022/05/25 13:39:40;;;;;;;0.80;0.65;;;;;;;;;;5029046;28;20237;-71
2022/05/25 13:42:11;;;;;;;1.67;0.40;;;;;;;;;;5034769;28;20572;-69
2022/05/25 13:44:40;;;;;;;0.40;0.40;;;;;;;;;;5030527;28;20549;-70
2022/05/25 13:47:06;;;;;;;0.95;0.40;;;;;;;;;;5022747;28;20190;-70
2022/05/25 13:49:38;;;;;;;1.75;0.45;;;;;;;;;;5036689;28;20194;-69
2022/05/25 13:52:16;;;;;;;1.42;0.40;;;;;;;;;;5030195;28;20210;-68
2022/05/25 13:54:43;;;;;;;2.20;0.50;;;;;;;;;;5027884;28;20175;-68
2022/05/25 13:57:12;;;;;;;0.50;0.50;;;;;;;;;;5035312;28;20359;-70
2022/05/25 13:59:39;;;;;;;3.35;0.55;;;;;;;;;;5033852;28;20233;-70
2022/05/25 14:02:27;;;;;;;2.42;0.50;;;;;;;;;;5029918;28;20534;-69
2022/05/25 14:04:55;;;;;;;0.63;0.40;;;;;;;;;;5031742;28;20257;-69
2022/05/25 14:07:26;;;;;;;2.40;0.40;;;;;;;;;;5028301;28;20182;-70
2022/05/25 14:12:38;;;;;;;0.50;0.50;;;;;;;;;;5036794;28;20193;-70
2022/05/25 14:15:04;;;;;;;0.50;0.50;;;;;;;;;;5032777;28;20543;-70
2022/05/25 14:17:30;;;;;;;0.90;0.38;;;;;;;;;;5034692;28;20278;-70
2022/05/25 14:20:02;;;;;;;1.05;0.50;;;;;;;;;;5036588;28;20807;-70
2022/05/25 14:22:33;;;;;;;1.38;0.60;;;;;;;;;;5036592;28;20234;-68
2022/05/25 14:25:09;;;;;;;1.42;0.45;;;;;;;;;;5031311;28;20182;-70
2022/05/25 14:27:38;;;;;;;0.40;0.30;;;;;;;;;;5022856;28;20207;-68
2022/05/25 14:30:15;;;;;;;0.60;0.50;;;;;;;;;;5036152;28;20257;-69
2022/05/25 14:32:41;;;;;;;0.40;0.40;;;;;;;;;;5036071;28;20240;-69
2022/05/25 14:35:13;;;;;;;0.47;0.40;;;;;;;;;;5028088;28;20522;-70
2022/05/25 14:37:40;;;;;;;0.40;0.40;;;;;;;;;;5038834;28;20206;-68
2022/05/25 14:40:09;;;;;;;0.77;0.47;;;;;;;;;;5038208;28;20217;-70
2022/05/25 14:42:50;;;;;;;0.52;0.40;;;;;;;;;;5038825;28;20190;-69
2022/05/25 14:45:16;;;;;;;1.20;0.45;;;;;;;;;;5041536;28;20183;-69
2022/05/25 14:48:14;;;;;;;0.50;0.40;;;;;;;;;;5022409;28;20214;-68
2022/05/25 14:50:44;;;;;;;0.70;0.50;;;;;;;;;;4988631;28;20674;-70
2022/05/25 14:53:15;;;;;;;1.20;0.40;;;;;;;;;;5033338;28;20178;-70
2022/05/25 14:55:47;;;;;;;1.60;0.50;;;;;;;;;;5032007;28;20217;-71
2022/05/25 14:58:20;;;;;;;2.85;1.02;;;;;;;;;;5035441;28;20216;-70
2022/05/25 15:01:00;;;;;;;0.40;0.40;;;;;;;;;;5029214;28;20190;-69
2022/05/25 15:03:32;;;;;;;2.83;0.50;;;;;;;;;;5035019;28;20183;-69
2022/05/25 15:06:03;;;;;;;3.15;0.50;;;;;;;;;;5023756;28;20182;-69
2022/05/25 15:08:32;;;;;;;0.77;0.52;;;;;;;;;;5029200;28;20210;-70
2022/05/25 15:11:16;;;;;;;0.65;0.65;;;;;;;;;;5034478;28;20240;-70
2022/05/25 15:19:21;;;;;;;0.60;0.50;;;;;;;;;;5033822;28;20784;-70
2022/05/25 15:21:48;;;;;;;0.75;0.60;;;;;;;;;;5039412;28;20194;-70
2022/05/25 15:24:16;;;;;;;1.60;0.40;;;;;;;;;;5030550;28;20249;-68
2022/05/25 15:26:51;;;;;;;0.77;0.35;;;;;;;;;;5034437;28;20183;-69
2022/05/25 15:29:26;;;;;;;2.17;0.70;;;;;;;;;;5036574;28;20214;-69
2022/05/25 15:31:56;;;;;;;0.80;0.50;;;;;;;;;;5039374;28;20607;-69
2022/05/25 15:34:22;;;;;;;0.40;0.40;;;;;;;;;;5032302;28;20194;-69
2022/05/25 15:36:49;;;;;;;0.52;0.40;;;;;;;;;;5034473;28;20269;-69
2022/05/25 15:39:15;;;;;;;0.40;0.40;;;;;;;;;;5024212;28;20221;-69